221150Z 23002KT 9999 -RA FEW005 SCT035TCU 19/19 Q1003=

221130Z 2212/2221 30005KT 9999 BKN035 TEMPO 2212/2218 4000 TSRA BKN040CB PROB40 2218/2221 SHRA BKN040CB=

Aktuell METAR/TAF ESNU/UME

Källa: Luftfartsverket (aro.lfv.se)